LKPM weather

Pribram Airport
Pribram, Central Bohemian Region, Czechia

Public forecast

Using degrees Celsius for public forecast. Weather courtesy of forecast.io.

METAR (pilot weather report)

Closest report is Václav Havel Airport Prague, 23.7 nm (43.8 km) NNE. Retrieved 2019/09/23 05:30 UTC (21 minutes ago):

LKPR 230530Z VRB02KT CAVOK 07/05 Q1013 NOSIG

TAF (pilot weather forecast)

Forecast is more than 12 hours old.

Closest forecast is Václav Havel Airport Prague, 23.7 nm (43.8 km) NNE. Retrieved 2019/09/22 00:27 UTC (1 day ago):

TAF LKPR 222300Z 2300/2406 02003KT CAVOK BECMG 2400/2403 26006KT 8000 BKN030 BECMG 2403/2405 3000 BR SCT003 BKN017